createdAt,value
2023-03-29T00:01:00.460Z,14.80
2023-03-29T00:03:29.020Z,15.20
2023-03-29T00:06:03.577Z,14.80
2023-03-29T00:08:34.312Z,14.60
2023-03-29T00:11:03.038Z,12.70
2023-03-29T00:13:31.295Z,10.30
2023-03-29T00:15:59.542Z,12.80
2023-03-29T00:18:28.012Z,10.80
2023-03-29T00:20:57.614Z,11.90
2023-03-29T00:23:26.252Z,12.80
2023-03-29T00:25:54.658Z,13.40
2023-03-29T00:28:23.173Z,16.80
2023-03-29T00:30:51.683Z,10.80
2023-03-29T00:33:21.055Z,11.70
2023-03-29T00:35:49.484Z,10.10
2023-03-29T00:38:18.336Z,10.60
2023-03-29T00:40:47.236Z,9.70
2023-03-29T00:43:16.039Z,9.90
2023-03-29T00:45:44.367Z,9.60
2023-03-29T00:48:16.038Z,10.20
2023-03-29T00:51:04.247Z,12.30
2023-03-29T00:53:44.557Z,8.90
2023-03-29T00:56:18.232Z,13.50
2023-03-29T00:59:18.795Z,9.70
2023-03-29T01:01:55.201Z,10.20
2023-03-29T01:04:32.980Z,8.00
2023-03-29T01:07:13.308Z,10.90
2023-03-29T01:09:45.965Z,10.40
2023-03-29T01:12:20.238Z,7.90
2023-03-29T01:14:55.704Z,11.10
2023-03-29T01:17:25.807Z,9.90
2023-03-29T01:20:10.885Z,10.00
2023-03-29T01:22:57.347Z,9.30
2023-03-29T01:25:54.554Z,9.70
2023-03-29T01:28:30.250Z,7.80
2023-03-29T01:31:07.531Z,13.70
2023-03-29T01:33:48.549Z,8.50
2023-03-29T01:36:20.033Z,12.00
2023-03-29T01:38:59.632Z,8.50
2023-03-29T01:41:45.754Z,12.40
2023-03-29T01:44:45.761Z,10.40
2023-03-29T01:47:43.482Z,12.10
2023-03-29T01:50:18.210Z,8.10
2023-03-29T01:52:46.343Z,8.70
2023-03-29T01:55:21.081Z,12.70
2023-03-29T01:57:52.689Z,9.90
2023-03-29T02:00:27.784Z,11.10
2023-03-29T02:03:00.720Z,10.10
2023-03-29T02:05:31.992Z,13.40
2023-03-29T02:08:01.949Z,8.70
2023-03-29T02:10:34.452Z,8.50
2023-03-29T02:13:03.254Z,13.90
2023-03-29T02:15:34.474Z,10.60
2023-03-29T02:18:06.779Z,12.10
2023-03-29T02:20:43.089Z,11.40
2023-03-29T02:23:23.939Z,11.70
2023-03-29T02:25:57.149Z,10.30
2023-03-29T02:28:27.361Z,11.70
2023-03-29T02:31:23.018Z,10.90
2023-03-29T02:33:56.134Z,13.20
2023-03-29T02:36:31.209Z,9.40
2023-03-29T02:39:04.693Z,8.60
2023-03-29T02:41:34.115Z,11.80
2023-03-29T02:44:05.651Z,11.70
2023-03-29T02:46:35.459Z,10.70
2023-03-29T02:49:05.316Z,12.80
2023-03-29T02:51:34.840Z,11.40
2023-03-29T02:54:12.984Z,13.10
2023-03-29T02:57:03.722Z,12.00
2023-03-29T02:59:33.522Z,10.60
2023-03-29T03:02:01.649Z,9.90
2023-03-29T03:04:30.031Z,11.30
2023-03-29T03:06:58.040Z,13.40
2023-03-29T03:09:27.557Z,13.20
2023-03-29T03:11:56.239Z,11.30
2023-03-29T03:14:25.775Z,13.60
2023-03-29T03:16:55.252Z,12.50
2023-03-29T03:19:23.789Z,11.60
2023-03-29T03:21:51.859Z,14.20
2023-03-29T03:24:19.813Z,15.10
2023-03-29T03:26:48.007Z,8.90
2023-03-29T03:29:16.383Z,12.60
2023-03-29T03:32:04.595Z,12.60
2023-03-29T03:34:51.999Z,14.30
2023-03-29T03:37:23.834Z,10.80
2023-03-29T03:39:52.121Z,13.30
2023-03-29T03:42:20.790Z,14.10
2023-03-29T03:44:50.144Z,11.50
2023-03-29T03:47:48.509Z,16.70
2023-03-29T03:50:21.815Z,13.50
2023-03-29T03:52:50.134Z,11.60
2023-03-29T03:55:18.155Z,15.30
2023-03-29T03:58:05.287Z,13.20
2023-03-29T04:00:33.747Z,11.20
2023-03-29T04:03:14.859Z,12.90
2023-03-29T04:05:45.024Z,19.00
2023-03-29T04:08:14.232Z,8.80
2023-03-29T04:11:07.650Z,10.60
2023-03-29T04:13:38.270Z,11.50
2023-03-29T04:16:19.760Z,12.70
2023-03-29T04:18:47.968Z,13.60
2023-03-29T04:21:18.884Z,9.70
2023-03-29T04:23:49.305Z,10.60
2023-03-29T04:26:18.239Z,12.90
2023-03-29T04:28:52.461Z,10.50
2023-03-29T04:31:35.324Z,11.30
2023-03-29T04:34:26.391Z,13.00
2023-03-29T04:36:54.670Z,8.30
2023-03-29T04:39:32.325Z,10.90
2023-03-29T04:42:03.045Z,9.70
2023-03-29T04:44:34.202Z,8.30
2023-03-29T04:47:03.876Z,10.70
2023-03-29T04:49:53.637Z,11.70
2023-03-29T04:52:33.332Z,11.00
2023-03-29T04:55:03.221Z,9.20
2023-03-29T04:57:46.987Z,12.00
2023-03-29T05:00:27.307Z,18.00
2023-03-29T05:03:14.715Z,80.70
2023-03-29T05:06:12.192Z,98.00
2023-03-29T05:08:41.011Z,112.30
2023-03-29T05:11:25.442Z,157.50
2023-03-29T05:13:55.971Z,262.70
2023-03-29T05:16:26.555Z,151.10
2023-03-29T05:18:56.945Z,65.20
2023-03-29T05:21:28.884Z,21.00
2023-03-29T05:23:58.882Z,12.20
2023-03-29T05:26:45.098Z,10.60
2023-03-29T05:29:14.320Z,11.60
2023-03-29T05:31:43.656Z,12.90
2023-03-29T05:34:11.913Z,10.00
2023-03-29T05:36:43.447Z,13.00
2023-03-29T05:39:11.692Z,10.20
2023-03-29T05:41:40.606Z,10.00
2023-03-29T05:44:26.074Z,11.30
2023-03-29T05:46:59.314Z,12.60
2023-03-29T05:49:27.388Z,14.00
2023-03-29T05:52:15.911Z,10.30
2023-03-29T05:54:44.272Z,10.30
2023-03-29T05:57:12.869Z,12.50
2023-03-29T05:59:43.393Z,13.20
2023-03-29T06:02:12.532Z,14.20
2023-03-29T06:04:45.697Z,15.30
2023-03-29T06:07:26.013Z,10.10
2023-03-29T06:10:23.798Z,12.60
2023-03-29T06:12:56.959Z,20.70
2023-03-29T06:15:25.742Z,11.10
2023-03-29T06:18:09.943Z,11.80
2023-03-29T06:20:38.801Z,10.00
2023-03-29T06:23:10.997Z,17.10
2023-03-29T06:25:39.799Z,10.10
2023-03-29T06:28:07.872Z,11.90
2023-03-29T06:30:36.450Z,13.60
2023-03-29T06:33:07.309Z,11.50
2023-03-29T06:35:48.728Z,11.20
2023-03-29T06:38:21.087Z,10.30
2023-03-29T06:41:13.139Z,11.40
2023-03-29T06:44:04.309Z,11.70
2023-03-29T06:46:38.607Z,12.40
2023-03-29T06:49:08.751Z,10.20
2023-03-29T06:52:00.201Z,10.10
2023-03-29T06:54:28.243Z,16.10
2023-03-29T06:57:04.946Z,8.40
2023-03-29T06:59:35.107Z,12.90
2023-03-29T07:02:25.413Z,12.90
2023-03-29T07:05:01.505Z,10.30
2023-03-29T07:07:52.557Z,13.80
2023-03-29T07:10:35.468Z,12.80
2023-03-29T07:13:30.672Z,12.50
2023-03-29T07:16:00.154Z,13.30
2023-03-29T07:18:46.946Z,11.30
2023-03-29T07:21:29.063Z,13.80
2023-03-29T07:23:58.405Z,9.90
2023-03-29T07:26:28.754Z,11.20
2023-03-29T07:28:58.903Z,12.70
2023-03-29T07:31:29.476Z,10.10
2023-03-29T07:34:06.801Z,9.60
2023-03-29T07:36:34.888Z,11.20
2023-03-29T07:39:03.776Z,10.30
2023-03-29T07:41:34.339Z,9.10
2023-03-29T07:44:09.581Z,10.10
2023-03-29T07:46:39.406Z,11.10
2023-03-29T07:49:08.251Z,9.50
2023-03-29T07:51:37.171Z,13.40
2023-03-29T07:54:09.092Z,9.20
2023-03-29T07:56:47.764Z,12.60
2023-03-29T07:59:45.203Z,11.70
2023-03-29T08:02:19.725Z,8.50
2023-03-29T08:04:50.256Z,6.90
2023-03-29T08:07:19.989Z,11.40
2023-03-29T08:10:09.512Z,7.80
2023-03-29T08:13:08.507Z,10.30
2023-03-29T08:15:47.496Z,8.70
2023-03-29T08:18:29.815Z,9.00
2023-03-29T08:20:58.767Z,9.70
2023-03-29T08:23:27.237Z,8.00
2023-03-29T08:26:16.205Z,7.70
2023-03-29T08:28:44.919Z,8.70
2023-03-29T08:31:13.290Z,8.60
2023-03-29T08:33:47.354Z,7.40
2023-03-29T08:36:38.429Z,8.30
2023-03-29T08:39:12.214Z,10.80
2023-03-29T08:41:54.590Z,6.90
2023-03-29T08:44:42.003Z,8.40
2023-03-29T08:47:46.775Z,9.70
2023-03-29T08:50:16.042Z,9.10
2023-03-29T08:52:56.050Z,7.90
2023-03-29T08:55:45.706Z,8.20
2023-03-29T08:58:40.717Z,6.60
2023-03-29T09:01:11.739Z,5.40
2023-03-29T09:04:31.725Z,5.90
2023-03-29T09:07:10.294Z,4.80
2023-03-29T09:09:43.153Z,5.80
2023-03-29T09:12:32.227Z,5.00
2023-03-29T09:15:22.224Z,3.10
2023-03-29T09:18:19.628Z,5.90
2023-03-29T09:20:52.599Z,5.60
2023-03-29T09:23:34.923Z,5.50
2023-03-29T09:26:18.714Z,7.00
2023-03-29T09:29:33.294Z,7.10
2023-03-29T09:32:06.704Z,9.70
2023-03-29T09:34:49.180Z,5.30
2023-03-29T09:37:30.074Z,5.80
2023-03-29T09:39:58.543Z,7.60
2023-03-29T09:42:38.255Z,5.60
2023-03-29T09:45:08.850Z,5.10
2023-03-29T09:47:51.787Z,5.50
2023-03-29T09:50:31.318Z,6.60
2023-03-29T09:53:01.797Z,4.70
2023-03-29T09:55:33.989Z,5.80
2023-03-29T09:58:27.579Z,4.30
2023-03-29T10:01:01.648Z,7.90
2023-03-29T10:03:32.151Z,5.00
2023-03-29T10:06:12.278Z,4.50
2023-03-29T10:08:47.910Z,4.10
2023-03-29T10:11:29.140Z,7.50
2023-03-29T10:14:03.951Z,4.90
2023-03-29T10:16:40.439Z,4.00
2023-03-29T10:19:34.505Z,6.00
2023-03-29T10:22:07.792Z,4.40
2023-03-29T10:24:35.712Z,4.60
2023-03-29T10:27:10.732Z,4.50
2023-03-29T10:29:43.204Z,5.70
2023-03-29T10:32:26.349Z,5.70
2023-03-29T10:34:55.318Z,5.10
2023-03-29T10:37:23.936Z,5.20
2023-03-29T10:39:54.831Z,5.00
2023-03-29T10:42:25.296Z,167.50
2023-03-29T10:44:56.635Z,15.00
2023-03-29T10:47:25.593Z,11.10
2023-03-29T10:49:57.069Z,7.50
2023-03-29T10:52:26.191Z,6.00
2023-03-29T10:54:56.469Z,4.30
2023-03-29T10:57:45.768Z,6.40
2023-03-29T11:00:18.072Z,6.30
2023-03-29T11:03:09.838Z,6.80
2023-03-29T11:05:48.012Z,8.00
2023-03-29T11:08:58.844Z,18.30
2023-03-29T11:12:16.412Z,7.60
2023-03-29T11:15:03.122Z,6.50
2023-03-29T11:17:59.050Z,5.90
2023-03-29T11:20:42.334Z,5.40
2023-03-29T11:23:32.486Z,5.70
2023-03-29T11:26:18.503Z,6.50
2023-03-29T11:28:57.237Z,5.50
2023-03-29T11:31:53.001Z,6.20
2023-03-29T11:35:02.360Z,5.40
2023-03-29T11:38:14.510Z,5.20
2023-03-29T11:40:50.755Z,6.40
2023-03-29T11:43:35.218Z,31.10
2023-03-29T11:46:12.040Z,17.40
2023-03-29T11:48:53.966Z,7.30
2023-03-29T11:51:30.929Z,9.20
2023-03-29T11:54:14.293Z,7.80
2023-03-29T11:56:52.431Z,7.40
2023-03-29T11:59:28.922Z,5.30
2023-03-29T12:02:12.683Z,5.60
2023-03-29T12:04:48.609Z,7.00
2023-03-29T12:07:47.564Z,5.50
2023-03-29T12:10:27.648Z,5.00
2023-03-29T12:13:06.019Z,7.40
2023-03-29T12:15:45.999Z,6.20
2023-03-29T12:18:27.983Z,10.20
2023-03-29T12:21:07.187Z,9.80
2023-03-29T12:23:42.563Z,7.50
2023-03-29T12:26:33.924Z,9.00
2023-03-29T12:29:23.079Z,6.00
2023-03-29T12:32:22.554Z,5.00
2023-03-29T12:35:15.093Z,6.50
2023-03-29T12:38:10.020Z,9.30
2023-03-29T12:41:05.359Z,8.30
2023-03-29T12:44:03.789Z,6.10
2023-03-29T12:46:44.677Z,4.10
2023-03-29T12:49:32.918Z,5.20
2023-03-29T12:52:08.772Z,7.90
2023-03-29T12:54:36.851Z,10.20
2023-03-29T12:57:48.875Z,5.30
2023-03-29T13:00:27.161Z,6.30
2023-03-29T13:03:22.271Z,5.50
2023-03-29T13:06:04.166Z,4.40
2023-03-29T13:08:35.728Z,5.20
2023-03-29T13:11:05.898Z,4.60
2023-03-29T13:13:37.155Z,5.30
2023-03-29T13:16:19.615Z,7.60
2023-03-29T13:19:15.366Z,5.30
2023-03-29T13:21:54.102Z,5.40
2023-03-29T13:24:40.599Z,5.80
2023-03-29T13:27:26.319Z,6.00
2023-03-29T13:30:20.939Z,4.50
2023-03-29T13:33:16.368Z,4.80
2023-03-29T13:36:01.004Z,5.10
2023-03-29T13:38:33.028Z,5.10
2023-03-29T13:41:07.349Z,5.90
2023-03-29T13:43:44.934Z,6.00
2023-03-29T13:46:36.909Z,5.60
2023-03-29T13:49:18.340Z,6.80
2023-03-29T13:52:06.905Z,5.20
2023-03-29T13:55:00.842Z,4.10
2023-03-29T13:57:40.049Z,5.20
2023-03-29T14:00:28.783Z,5.30
2023-03-29T14:03:04.293Z,5.60
2023-03-29T14:05:40.199Z,5.30
2023-03-29T14:08:33.343Z,6.00
2023-03-29T14:11:05.136Z,5.90
2023-03-29T14:13:34.904Z,5.10
2023-03-29T14:16:12.379Z,6.00
2023-03-29T14:18:49.565Z,6.00
2023-03-29T14:21:20.619Z,7.20
2023-03-29T14:23:57.179Z,6.10
2023-03-29T14:26:30.891Z,6.70
2023-03-29T14:29:01.508Z,5.40
2023-03-29T14:31:36.175Z,8.30
2023-03-29T14:34:08.096Z,6.70
2023-03-29T14:36:36.527Z,5.50
2023-03-29T14:39:07.995Z,6.90
2023-03-29T14:41:38.249Z,5.50
2023-03-29T14:44:08.703Z,7.30
2023-03-29T14:46:37.187Z,7.10
2023-03-29T14:49:06.531Z,6.00
2023-03-29T14:51:37.737Z,6.10
2023-03-29T14:54:06.544Z,7.50
2023-03-29T14:56:34.883Z,5.10
2023-03-29T14:59:04.992Z,7.70
2023-03-29T15:01:33.545Z,8.20
2023-03-29T15:04:07.671Z,6.10
2023-03-29T15:06:41.817Z,8.10
2023-03-29T15:09:24.661Z,5.40
2023-03-29T15:11:58.822Z,6.20
2023-03-29T15:14:34.055Z,8.40
2023-03-29T15:17:20.884Z,6.30
2023-03-29T15:19:56.670Z,6.70
2023-03-29T15:22:32.100Z,7.20
2023-03-29T15:25:01.852Z,7.50
2023-03-29T15:27:41.968Z,7.30
2023-03-29T15:30:15.865Z,10.00
2023-03-29T15:32:44.455Z,7.20
2023-03-29T15:35:26.110Z,7.20
2023-03-29T15:37:54.183Z,6.00
2023-03-29T15:40:26.786Z,5.00
2023-03-29T15:42:55.738Z,8.00
2023-03-29T15:45:24.082Z,8.80
2023-03-29T15:47:52.555Z,8.70
2023-03-29T15:50:20.708Z,8.50
2023-03-29T15:52:48.959Z,7.70
2023-03-29T15:55:17.069Z,7.00
2023-03-29T15:57:48.448Z,9.00
2023-03-29T16:00:19.571Z,9.80
2023-03-29T16:02:47.622Z,11.10
2023-03-29T16:05:15.640Z,9.00
2023-03-29T16:07:44.130Z,10.40
2023-03-29T16:10:12.059Z,8.80
2023-03-29T16:12:40.788Z,10.40
2023-03-29T16:15:18.138Z,9.60
2023-03-29T16:17:46.071Z,8.50
2023-03-29T16:20:20.163Z,9.20
2023-03-29T16:22:49.072Z,9.20
2023-03-29T16:25:19.724Z,8.40
2023-03-29T16:27:47.783Z,7.50
2023-03-29T16:30:16.119Z,8.50
2023-03-29T16:32:44.201Z,7.10
2023-03-29T16:35:32.195Z,7.50
2023-03-29T16:38:00.525Z,8.10
2023-03-29T16:40:28.671Z,10.50
2023-03-29T16:42:56.650Z,7.50
2023-03-29T16:45:25.223Z,7.40
2023-03-29T16:47:54.712Z,11.40
2023-03-29T16:50:27.496Z,9.00
2023-03-29T16:52:56.113Z,9.80
2023-03-29T16:55:24.826Z,8.90
2023-03-29T16:57:52.850Z,10.90
2023-03-29T17:00:21.975Z,12.10
2023-03-29T17:02:50.079Z,14.50
2023-03-29T17:05:19.361Z,13.60
2023-03-29T17:07:47.554Z,13.50
2023-03-29T17:10:15.761Z,17.40
2023-03-29T17:12:43.850Z,20.20
2023-03-29T17:15:12.161Z,20.10
2023-03-29T17:17:40.277Z,21.30
2023-03-29T17:20:12.578Z,28.80
2023-03-29T17:22:41.510Z,29.40
2023-03-29T17:25:10.621Z,26.30
2023-03-29T17:27:38.843Z,26.60
2023-03-29T17:30:07.496Z,29.80
2023-03-29T17:32:36.710Z,28.00
2023-03-29T17:35:05.218Z,30.90
2023-03-29T17:37:33.423Z,32.30
2023-03-29T17:40:02.074Z,26.40
2023-03-29T17:42:30.053Z,25.00
2023-03-29T17:44:58.578Z,21.30
2023-03-29T17:47:26.629Z,21.60
2023-03-29T17:49:54.718Z,18.30
2023-03-29T17:52:22.843Z,22.40
2023-03-29T17:54:51.004Z,22.90
2023-03-29T17:57:19.264Z,20.40
2023-03-29T17:59:47.372Z,23.70
2023-03-29T18:02:21.233Z,19.70
2023-03-29T18:04:51.176Z,21.70
2023-03-29T18:07:19.768Z,19.30
2023-03-29T18:09:48.066Z,23.90
2023-03-29T18:12:16.818Z,21.00
2023-03-29T18:14:45.132Z,23.90
2023-03-29T18:17:13.153Z,25.60
2023-03-29T18:19:41.252Z,26.50
2023-03-29T18:22:12.580Z,30.90
2023-03-29T18:24:40.884Z,37.00
2023-03-29T18:27:09.181Z,31.20
2023-03-29T18:29:37.493Z,34.00
2023-03-29T18:32:06.378Z,33.00
2023-03-29T18:34:34.640Z,28.90
2023-03-29T18:37:04.413Z,29.80
2023-03-29T18:39:34.916Z,28.80
2023-03-29T18:42:03.102Z,25.00
2023-03-29T18:44:31.454Z,25.50
2023-03-29T18:47:02.640Z,28.20
2023-03-29T18:49:30.604Z,23.30
2023-03-29T18:51:58.953Z,28.10
2023-03-29T18:54:26.960Z,31.10
2023-03-29T18:56:57.205Z,34.30
2023-03-29T18:59:26.991Z,26.60
2023-03-29T19:01:55.065Z,25.50
2023-03-29T19:04:26.917Z,26.80
2023-03-29T19:06:56.428Z,26.20
2023-03-29T19:09:24.692Z,22.90
2023-03-29T19:11:54.982Z,24.60
2023-03-29T19:14:26.250Z,21.40
2023-03-29T19:16:54.522Z,26.40
2023-03-29T19:19:23.856Z,25.70
2023-03-29T19:21:53.553Z,26.30
2023-03-29T19:24:22.190Z,24.60
2023-03-29T19:26:53.510Z,25.70
2023-03-29T19:29:22.139Z,27.90
2023-03-29T19:31:51.958Z,30.90
2023-03-29T19:34:23.124Z,43.90
2023-03-29T19:36:53.520Z,38.80
2023-03-29T19:39:23.223Z,24.50
2023-03-29T19:41:51.502Z,29.30
2023-03-29T19:44:20.241Z,34.70
2023-03-29T19:46:48.152Z,27.00
2023-03-29T19:49:16.553Z,27.60
2023-03-29T19:51:45.193Z,33.90
2023-03-29T19:54:13.928Z,36.00
2023-03-29T19:56:43.076Z,39.10
2023-03-29T19:59:15.020Z,36.80
2023-03-29T20:01:51.419Z,31.80
2023-03-29T20:04:22.851Z,38.80
2023-03-29T20:06:51.098Z,41.10
2023-03-29T20:09:19.175Z,51.40
2023-03-29T20:11:47.446Z,41.20
2023-03-29T20:14:16.127Z,38.60
2023-03-29T20:16:45.128Z,29.40
2023-03-29T20:19:17.576Z,27.80
2023-03-29T20:21:50.944Z,27.20
2023-03-29T20:24:19.082Z,24.50
2023-03-29T20:26:47.024Z,27.90
2023-03-29T20:29:17.941Z,26.70
2023-03-29T20:31:48.101Z,27.50
2023-03-29T20:34:18.431Z,29.00
2023-03-29T20:36:46.998Z,32.90
2023-03-29T20:39:18.940Z,28.50
2023-03-29T20:41:48.004Z,33.70
2023-03-29T20:44:17.576Z,33.40
2023-03-29T20:46:54.692Z,28.70
2023-03-29T20:49:26.559Z,31.00
2023-03-29T20:51:58.927Z,28.80
2023-03-29T20:54:27.140Z,28.50
2023-03-29T20:56:55.122Z,23.20
2023-03-29T20:59:23.884Z,29.30
2023-03-29T21:01:52.261Z,24.10
2023-03-29T21:04:23.359Z,23.30
2023-03-29T21:06:51.540Z,22.30
2023-03-29T21:09:22.319Z,16.60
2023-03-29T21:11:50.848Z,19.80
2023-03-29T21:14:21.329Z,20.00
2023-03-29T21:16:49.667Z,19.40
2023-03-29T21:19:17.678Z,19.00
2023-03-29T21:21:47.563Z,21.50
2023-03-29T21:24:16.669Z,17.80
2023-03-29T21:26:48.665Z,16.10
2023-03-29T21:29:16.825Z,19.80
2023-03-29T21:31:45.584Z,18.00
2023-03-29T21:34:13.803Z,17.00
2023-03-29T21:36:42.491Z,23.40
2023-03-29T21:39:10.460Z,22.00
2023-03-29T21:41:38.505Z,21.30
2023-03-29T21:44:06.592Z,19.70
2023-03-29T21:46:34.635Z,21.50
2023-03-29T21:49:02.916Z,21.50
2023-03-29T21:51:31.173Z,19.40
2023-03-29T21:53:59.120Z,19.30
2023-03-29T21:56:28.391Z,14.30
2023-03-29T21:58:56.464Z,18.30
2023-03-29T22:01:24.695Z,20.10
2023-03-29T22:03:53.182Z,18.20
2023-03-29T22:06:21.400Z,23.90
2023-03-29T22:08:53.085Z,17.30
2023-03-29T22:11:21.671Z,21.70
2023-03-29T22:13:52.561Z,21.40
2023-03-29T22:16:22.343Z,21.40
2023-03-29T22:18:50.597Z,23.90
2023-03-29T22:21:22.563Z,19.10
2023-03-29T22:23:56.513Z,18.70
2023-03-29T22:26:28.349Z,29.80
2023-03-29T22:28:58.400Z,16.40
2023-03-29T22:31:28.150Z,25.30
2023-03-29T22:33:56.855Z,21.50
2023-03-29T22:36:27.268Z,23.90
2023-03-29T22:38:55.840Z,23.30
2023-03-29T22:41:26.185Z,21.80
2023-03-29T22:43:57.304Z,16.50
2023-03-29T22:46:26.464Z,18.90
2023-03-29T22:48:54.977Z,17.40
2023-03-29T22:51:23.603Z,19.00
2023-03-29T22:53:52.075Z,16.40
2023-03-29T22:56:20.511Z,17.90
2023-03-29T22:58:48.643Z,15.60
2023-03-29T23:01:16.956Z,19.90
2023-03-29T23:03:45.122Z,20.40
2023-03-29T23:06:13.198Z,22.50
2023-03-29T23:08:41.338Z,20.90
2023-03-29T23:11:09.320Z,19.30
2023-03-29T23:13:37.502Z,21.20
2023-03-29T23:16:05.956Z,16.80
2023-03-29T23:18:37.854Z,15.60
2023-03-29T23:21:06.869Z,14.40
2023-03-29T23:23:35.731Z,15.90
2023-03-29T23:26:04.042Z,19.30
2023-03-29T23:28:34.808Z,19.70
2023-03-29T23:31:11.723Z,17.90
2023-03-29T23:33:42.877Z,19.70
2023-03-29T23:36:17.669Z,17.50
2023-03-29T23:38:47.121Z,21.10
2023-03-29T23:41:16.778Z,16.20
2023-03-29T23:43:47.274Z,17.90
2023-03-29T23:46:17.710Z,19.50
2023-03-29T23:48:49.080Z,16.60
2023-03-29T23:51:18.923Z,17.60
2023-03-29T23:53:47.878Z,18.10
2023-03-29T23:56:16.301Z,15.20
2023-03-29T23:58:44.869Z,16.60
